メインページ
METAR-TAF:

METAR-TAF

空港 :

Fort Drum, ニューヨーク, アメリカ合衆国

緯度: 44-03N, 経度: 075-44W, 海抜: 207m

現時点の気象観測

当レポートは1時間13分前の16:56(UTC)に作成
西の風 8kt
気温 31°C
湿度 52%
気圧 1020 hPa
視程: 16.1km
高度4600ftの雲はほとんどない
高度20000ftの雲は散在している

METAR: KGTB 261656Z AUTO 27008KT 10SM FEW046 SCT200 31/20 A3012 RMK AO2 SLP196 T03060199

時間: 14:09 (18:09 UTC)

予報

当レポートは1時間9分前の17:00(UTC)に作成
予報は26日の 17時(UTC)から 27日の 23時(UTC)まで有効
変向風 6kt
視程10km以上
高度20000ftの雲はほとんどない
27日の 17時(UTC)から 27日の 18時(UTC)まで徐々に
南西の風 9kt
視程10km以上
高度3500ftの雲は散在している

TAF: KGTB 261700Z 2617/2723 VRB06KT 9999 FEW200 QNH3011INS BECMG 2717/2718 22009KT 9999 SCT035 QNH3010INS TX30/2619Z TN20/2707Z

4,000以上の空港の気象観測と天気予報(METAR報とTAF報)

利用可能な観測所は地図上に黄色い丸と赤い丸で示す。

丸の上にカーソルを重ねると観測所名を参照できる。

次にクリックすると気象観測と天気予報を参照できる。

マップの切り替え:黒色「×」印の緑ボタンをクリックして拡大、「-」印の緑ボタンをクリックして縮小、緑色の三角印をクリックして隣りの地図に切り替え


METAR-TAF: